createdAt,value
2019-04-22T00:01:50.334Z,35.99
2019-04-22T00:04:29.814Z,35.86
2019-04-22T00:07:09.824Z,35.64
2019-04-22T00:09:47.414Z,35.75
2019-04-22T00:12:17.402Z,35.76
2019-04-22T00:14:35.171Z,36.10
2019-04-22T00:17:16.909Z,36.29
2019-04-22T00:19:36.004Z,36.50
2019-04-22T00:22:08.035Z,35.38
2019-04-22T00:24:30.762Z,36.47
2019-04-22T00:27:04.108Z,35.99
2019-04-22T00:32:00.283Z,36.73
2019-04-22T00:34:22.501Z,37.11
2019-04-22T00:36:54.746Z,37.10
2019-04-22T00:39:31.603Z,37.48
2019-04-22T00:41:57.155Z,37.72
2019-04-22T00:44:29.892Z,37.84
2019-04-22T00:46:59.587Z,38.05
2019-04-22T00:52:01.084Z,38.49
2019-04-22T00:54:21.481Z,38.50
2019-04-22T00:56:48.203Z,38.68
2019-04-22T00:59:17.558Z,38.70
2019-04-22T01:01:44.028Z,39.03
2019-04-22T01:04:23.112Z,39.25
2019-04-22T01:06:45.898Z,39.36
2019-04-22T01:09:36.948Z,39.31
2019-04-22T01:11:37.772Z,39.60
2019-04-22T01:14:20.562Z,39.58
2019-04-22T01:16:42.967Z,39.63
2019-04-22T01:19:07.255Z,40.17
2019-04-22T01:21:40.441Z,40.04
2019-04-22T01:24:05.938Z,40.56
2019-04-22T01:26:28.930Z,40.64
2019-04-22T01:28:53.587Z,40.57
2019-04-22T01:31:16.196Z,41.05
2019-04-22T01:33:45.771Z,41.35
2019-04-22T01:36:25.944Z,41.23
2019-04-22T01:38:58.245Z,41.46
2019-04-22T01:41:42.038Z,41.55
2019-04-22T01:44:10.566Z,41.68
2019-04-22T01:46:31.508Z,41.64
2019-04-22T01:48:59.484Z,41.95
2019-04-22T01:51:40.593Z,42.48
2019-04-22T01:53:57.586Z,42.50
2019-04-22T01:56:27.333Z,42.48
2019-04-22T01:58:44.320Z,42.61
2019-04-22T02:01:30.785Z,42.74
2019-04-22T02:03:57.942Z,42.51
2019-04-22T02:06:21.918Z,42.67
2019-04-22T02:08:55.257Z,42.39
2019-04-22T02:11:29.268Z,42.19
2019-04-22T02:13:49.338Z,42.15
2019-04-22T02:16:21.268Z,42.64
2019-04-22T02:18:49.157Z,42.83
2019-04-22T02:21:16.740Z,43.15
2019-04-22T02:26:15.542Z,43.55
2019-04-22T02:36:30.548Z,43.74
2019-04-22T02:41:26.338Z,44.26
2019-04-22T02:48:53.763Z,45.20
2019-04-22T02:51:12.587Z,45.46
2019-04-22T02:56:25.707Z,45.69
2019-04-22T02:58:48.359Z,45.64
2019-04-22T03:01:13.591Z,45.38
2019-04-22T03:06:16.468Z,45.33
2019-04-22T03:08:29.603Z,45.38
2019-04-22T03:13:37.803Z,45.66
2019-04-22T03:16:17.518Z,45.58
2019-04-22T03:20:58.397Z,45.35
2019-04-22T03:23:36.553Z,45.22
2019-04-22T03:28:33.059Z,45.19
2019-04-22T03:33:36.249Z,45.48
2019-04-22T03:35:50.123Z,45.76
2019-04-22T03:38:18.027Z,46.12
2019-04-22T03:41:05.469Z,46.44
2019-04-22T03:43:33.869Z,46.68
2019-04-22T03:45:51.413Z,47.20
2019-04-22T03:48:26.269Z,47.70
2019-04-22T03:58:01.739Z,49.01
2019-04-22T04:00:34.851Z,48.84
2019-04-22T04:03:09.401Z,48.77
2019-04-22T04:10:45.447Z,48.56
2019-04-22T04:13:19.710Z,48.61
2019-04-22T04:18:06.907Z,48.71
2019-04-22T04:20:36.439Z,48.76
2019-04-22T04:32:56.656Z,44.68
2019-04-22T04:35:33.178Z,43.15
2019-04-22T04:42:54.314Z,37.94
2019-04-22T04:53:01.481Z,32.77
2019-04-22T04:55:23.994Z,31.84
2019-04-22T04:57:57.675Z,31.97
2019-04-22T05:05:21.076Z,32.13
2019-04-22T05:07:40.386Z,32.20
2019-04-22T05:10:31.482Z,31.80
2019-04-22T05:15:11.255Z,30.63
2019-04-22T05:20:05.297Z,28.44
2019-04-22T05:22:34.084Z,27.93
2019-04-22T05:25:00.032Z,28.05
2019-04-22T05:30:21.483Z,27.73
2019-04-22T05:32:27.143Z,26.91
2019-04-22T05:34:55.736Z,26.59
2019-04-22T05:39:52.532Z,25.95
2019-04-22T05:42:17.862Z,26.11
2019-04-22T05:44:49.667Z,26.25
2019-04-22T05:47:20.837Z,25.86
2019-04-22T05:49:45.894Z,25.02
2019-04-22T05:52:17.413Z,25.36
2019-04-22T05:54:47.059Z,25.54
2019-04-22T05:59:50.326Z,25.51
2019-04-22T06:04:46.310Z,25.23
2019-04-22T06:07:06.460Z,23.66
2019-04-22T06:09:32.276Z,24.15
2019-04-22T06:11:59.183Z,24.03
2019-04-22T06:14:31.426Z,24.92
2019-04-22T06:17:03.905Z,24.87
2019-04-22T06:19:51.206Z,24.62
2019-04-22T06:22:04.260Z,25.27
2019-04-22T06:24:38.880Z,25.03
2019-04-22T06:27:12.505Z,26.23
2019-04-22T06:29:41.254Z,23.58
2019-04-22T06:34:28.782Z,24.37
2019-04-22T06:37:07.315Z,24.98
2019-04-22T06:39:34.291Z,25.63
2019-04-22T06:42:01.078Z,26.02
2019-04-22T06:49:33.448Z,27.17
2019-04-22T06:51:55.703Z,25.70
2019-04-22T06:56:57.244Z,25.68
2019-04-22T07:01:50.307Z,25.12
2019-04-22T07:04:17.240Z,25.67
2019-04-22T07:09:35.043Z,23.81
2019-04-22T07:11:43.300Z,23.23
2019-04-22T07:14:09.045Z,24.12
2019-04-22T07:16:43.241Z,25.00
2019-04-22T07:19:13.858Z,24.59
2019-04-22T07:22:01.276Z,25.65
2019-04-22T07:24:27.838Z,24.13
2019-04-22T07:26:37.593Z,23.92
2019-04-22T07:29:10.355Z,23.57
2019-04-22T07:31:34.160Z,23.51
2019-04-22T07:34:16.399Z,23.59
2019-04-22T07:39:05.562Z,23.30
2019-04-22T07:41:34.479Z,23.37
2019-04-22T07:44:13.086Z,24.65
2019-04-22T07:46:36.224Z,24.03
2019-04-22T07:49:02.035Z,24.10
2019-04-22T07:51:32.703Z,23.32
2019-04-22T07:53:59.694Z,24.19
2019-04-22T07:56:26.136Z,24.31
2019-04-22T07:58:58.237Z,25.50
2019-04-22T08:01:26.366Z,25.88
2019-04-22T08:06:26.194Z,25.02
2019-04-22T08:08:58.418Z,24.28
2019-04-22T08:11:37.537Z,25.91
2019-04-22T08:13:49.891Z,24.37
2019-04-22T08:16:16.357Z,25.00
2019-04-22T08:18:47.518Z,26.27
2019-04-22T08:21:16.741Z,24.77
2019-04-22T08:23:51.031Z,24.62
2019-04-22T08:26:16.814Z,25.31
2019-04-22T08:28:46.498Z,25.00
2019-04-22T08:31:14.885Z,24.87
2019-04-22T08:33:41.398Z,24.31
2019-04-22T08:36:18.395Z,22.13
2019-04-22T08:38:48.709Z,23.60
2019-04-22T08:41:17.284Z,23.22
2019-04-22T08:43:51.429Z,23.29
2019-04-22T08:46:06.112Z,22.11
2019-04-22T08:48:37.094Z,22.15
2019-04-22T08:51:08.816Z,23.22
2019-04-22T08:53:41.579Z,23.24
2019-04-22T08:56:14.478Z,22.70
2019-04-22T08:58:35.868Z,22.14
2019-04-22T09:01:06.507Z,22.32
2019-04-22T09:03:30.387Z,20.81
2019-04-22T09:06:20.150Z,22.50
2019-04-22T09:08:34.203Z,22.07
2019-04-22T09:10:59.945Z,20.02
2019-04-22T09:13:31.960Z,21.66
2019-04-22T09:15:55.467Z,21.47
2019-04-22T09:18:23.215Z,22.20
2019-04-22T09:21:02.627Z,21.90
2019-04-22T09:23:27.095Z,22.41
2019-04-22T09:25:48.483Z,23.36
2019-04-22T09:28:24.633Z,22.28
2019-04-22T09:30:56.653Z,23.34
2019-04-22T09:33:20.928Z,21.66
2019-04-22T09:35:56.862Z,22.66
2019-04-22T09:38:26.812Z,24.43
2019-04-22T09:43:16.950Z,23.46
2019-04-22T09:45:43.910Z,22.57
2019-04-22T09:50:42.104Z,23.39
2019-04-22T09:53:08.480Z,24.46
2019-04-22T09:55:37.671Z,24.36
2019-04-22T09:58:03.115Z,24.28
2019-04-22T10:00:40.565Z,24.01
2019-04-22T10:03:06.888Z,24.17
2019-04-22T10:05:33.879Z,22.32
2019-04-22T10:08:14.857Z,22.32
2019-04-22T10:10:35.227Z,22.16
2019-04-22T10:13:03.495Z,23.73
2019-04-22T10:15:36.257Z,22.84
2019-04-22T10:18:02.794Z,23.42
2019-04-22T10:20:31.427Z,22.22
2019-04-22T10:22:57.968Z,22.48
2019-04-22T10:25:31.314Z,23.73
2019-04-22T10:28:06.520Z,22.95
2019-04-22T10:30:38.729Z,23.03
2019-04-22T10:32:54.901Z,23.33
2019-04-22T10:35:06.826Z,24.51
2019-04-22T10:37:32.220Z,23.48
2019-04-22T10:40:04.000Z,23.01
2019-04-22T10:42:29.272Z,22.98
2019-04-22T10:44:57.275Z,23.82
2019-04-22T10:47:25.749Z,24.39
2019-04-22T10:49:54.147Z,23.73
2019-04-22T10:52:23.335Z,24.30
2019-04-22T10:54:51.688Z,22.60
2019-04-22T10:57:20.106Z,22.29
2019-04-22T10:59:47.639Z,21.70
2019-04-22T11:02:14.970Z,22.55
2019-04-22T11:04:42.341Z,20.78
2019-04-22T11:07:13.082Z,21.39
2019-04-22T11:09:49.413Z,20.35
2019-04-22T11:12:13.882Z,20.70
2019-04-22T11:14:40.161Z,20.79
2019-04-22T11:17:07.420Z,19.99
2019-04-22T11:19:35.389Z,20.23
2019-04-22T11:22:10.957Z,19.87
2019-04-22T11:24:32.725Z,19.58
2019-04-22T11:27:01.124Z,19.53
2019-04-22T11:29:29.790Z,20.07
2019-04-22T11:31:56.950Z,19.34
2019-04-22T11:34:24.922Z,18.81
2019-04-22T11:36:52.702Z,18.58
2019-04-22T11:39:19.849Z,17.60
2019-04-22T11:41:47.188Z,17.99
2019-04-22T11:44:15.095Z,17.12
2019-04-22T11:46:43.245Z,16.98
2019-04-22T11:49:11.949Z,16.08
2019-04-22T11:51:40.206Z,16.51
2019-04-22T11:54:07.314Z,17.56
2019-04-22T11:56:34.914Z,17.73
2019-04-22T11:59:02.654Z,17.04
2019-04-22T12:01:30.921Z,17.33
2019-04-22T12:03:58.212Z,17.69
2019-04-22T12:06:26.284Z,16.96
2019-04-22T12:08:54.141Z,17.21
2019-04-22T12:11:22.761Z,18.47
2019-04-22T12:13:51.760Z,17.70
2019-04-22T12:16:19.345Z,16.64
2019-04-22T12:18:47.233Z,17.08
2019-04-22T12:21:15.277Z,15.54
2019-04-22T12:23:43.407Z,17.09
2019-04-22T12:26:16.171Z,16.65
2019-04-22T12:28:39.637Z,15.84
2019-04-22T12:31:06.986Z,15.97
2019-04-22T12:33:35.096Z,15.38
2019-04-22T12:36:02.625Z,14.52
2019-04-22T12:38:29.671Z,15.11
2019-04-22T12:41:01.282Z,14.89
2019-04-22T12:43:26.543Z,15.38
2019-04-22T12:45:56.105Z,15.37
2019-04-22T12:48:25.259Z,15.15
2019-04-22T12:50:56.002Z,15.65
2019-04-22T12:53:25.337Z,15.06
2019-04-22T12:55:50.413Z,14.71
2019-04-22T12:58:18.137Z,16.41
2019-04-22T13:00:45.615Z,16.54
2019-04-22T13:03:13.865Z,17.54
2019-04-22T13:05:41.068Z,16.06
2019-04-22T13:08:09.579Z,16.77
2019-04-22T13:10:45.671Z,17.30
2019-04-22T13:13:07.002Z,17.64
2019-04-22T13:15:35.101Z,18.86
2019-04-22T13:18:12.874Z,19.94
2019-04-22T13:20:32.374Z,19.03
2019-04-22T13:22:59.981Z,19.43
2019-04-22T13:25:30.026Z,20.14
2019-04-22T13:27:57.494Z,19.46
2019-04-22T13:30:26.188Z,20.03
2019-04-22T13:32:54.551Z,20.78
2019-04-22T13:35:22.222Z,20.21
2019-04-22T13:37:51.032Z,19.91
2019-04-22T13:40:19.210Z,21.99
2019-04-22T13:42:46.851Z,21.14
2019-04-22T13:45:15.822Z,20.51
2019-04-22T13:48:06.881Z,20.68
2019-04-22T13:50:49.451Z,19.39
2019-04-22T13:53:23.872Z,20.53
2019-04-22T13:55:40.886Z,20.22
2019-04-22T13:57:53.902Z,19.34
2019-04-22T14:00:09.544Z,18.61
2019-04-22T14:02:36.904Z,19.90
2019-04-22T14:05:06.409Z,19.88
2019-04-22T14:07:34.776Z,19.76
2019-04-22T14:10:02.657Z,20.12
2019-04-22T14:12:30.797Z,20.26
2019-04-22T14:14:58.450Z,19.88
2019-04-22T14:17:27.094Z,20.70
2019-04-22T14:19:55.031Z,20.65
2019-04-22T14:22:22.411Z,22.06
2019-04-22T14:24:49.767Z,19.47
2019-04-22T14:27:27.901Z,20.43
2019-04-22T14:29:47.185Z,20.50
2019-04-22T14:32:21.045Z,20.43
2019-04-22T14:34:44.957Z,19.34
2019-04-22T14:37:14.248Z,20.22
2019-04-22T14:39:41.991Z,19.08
2019-04-22T14:42:28.445Z,19.04
2019-04-22T14:45:18.062Z,17.28
2019-04-22T14:47:34.887Z,18.18
2019-04-22T14:50:00.491Z,17.25
2019-04-22T14:52:27.753Z,17.19
2019-04-22T14:54:48.379Z,18.47
2019-04-22T14:57:03.342Z,18.37
2019-04-22T14:59:30.956Z,19.24
2019-04-22T15:02:01.353Z,18.76
2019-04-22T15:04:29.079Z,19.62
2019-04-22T15:06:58.969Z,19.62
2019-04-22T15:09:27.895Z,19.11
2019-04-22T15:12:08.379Z,18.40
2019-04-22T15:14:25.608Z,16.32
2019-04-22T15:16:53.069Z,18.17
2019-04-22T15:19:22.129Z,18.44
2019-04-22T15:21:50.327Z,18.67
2019-04-22T15:24:18.444Z,18.97
2019-04-22T15:26:46.537Z,18.60
2019-04-22T15:29:13.640Z,18.85
2019-04-22T15:31:41.648Z,18.58
2019-04-22T15:34:10.236Z,18.21
2019-04-22T15:36:37.850Z,18.45
2019-04-22T15:39:05.261Z,17.66
2019-04-22T15:41:34.706Z,18.01
2019-04-22T15:44:03.608Z,17.94
2019-04-22T15:46:31.940Z,18.05
2019-04-22T15:49:00.010Z,18.38
2019-04-22T15:51:28.839Z,18.23
2019-04-22T15:53:57.912Z,19.64
2019-04-22T15:56:26.388Z,17.72
2019-04-22T15:58:53.689Z,18.28
2019-04-22T16:01:27.546Z,19.27
2019-04-22T16:03:50.332Z,19.20
2019-04-22T16:06:17.823Z,19.42
2019-04-22T16:08:45.829Z,18.36
2019-04-22T16:11:13.986Z,20.00
2019-04-22T16:13:42.283Z,18.99
2019-04-22T16:16:10.358Z,19.04
2019-04-22T16:18:38.097Z,18.73
2019-04-22T16:21:05.196Z,18.90
2019-04-22T16:23:33.999Z,19.75
2019-04-22T16:26:01.150Z,20.16
2019-04-22T16:28:29.336Z,19.28
2019-04-22T16:30:57.700Z,18.98
2019-04-22T16:33:25.646Z,19.81
2019-04-22T16:35:53.237Z,20.52
2019-04-22T16:38:20.472Z,19.37
2019-04-22T16:40:48.581Z,19.33
2019-04-22T16:43:16.602Z,19.25
2019-04-22T16:45:45.418Z,19.98
2019-04-22T16:48:13.672Z,20.16
2019-04-22T16:50:42.844Z,20.90
2019-04-22T16:53:10.220Z,21.25
2019-04-22T16:55:37.309Z,21.26
2019-04-22T16:58:05.270Z,21.18
2019-04-22T17:00:32.742Z,21.72
2019-04-22T17:03:00.725Z,21.46
2019-04-22T17:05:29.482Z,21.78
2019-04-22T17:07:58.224Z,22.17
2019-04-22T17:10:26.116Z,22.57
2019-04-22T17:13:01.428Z,22.10
2019-04-22T17:15:24.079Z,21.98
2019-04-22T17:17:51.596Z,22.06
2019-04-22T17:20:18.858Z,23.07
2019-04-22T17:22:47.216Z,22.85
2019-04-22T17:25:16.185Z,22.85
2019-04-22T17:27:43.570Z,23.00
2019-04-22T17:30:10.744Z,22.96
2019-04-22T17:32:37.841Z,23.89
2019-04-22T17:35:06.360Z,24.34
2019-04-22T17:37:35.940Z,25.07
2019-04-22T17:40:21.892Z,25.73
2019-04-22T17:42:49.471Z,27.14
2019-04-22T17:45:31.340Z,26.81
2019-04-22T17:47:46.567Z,27.21
2019-04-22T17:50:16.752Z,27.54
2019-04-22T17:53:00.389Z,27.91
2019-04-22T17:55:19.514Z,27.89
2019-04-22T17:57:40.906Z,28.84
2019-04-22T18:00:14.580Z,28.86
2019-04-22T18:02:43.303Z,29.34
2019-04-22T18:05:01.461Z,29.23
2019-04-22T18:07:44.063Z,29.39
2019-04-22T18:10:28.811Z,29.76
2019-04-22T18:12:44.222Z,29.69
2019-04-22T18:15:10.266Z,30.40
2019-04-22T18:17:41.086Z,30.23
2019-04-22T18:20:04.683Z,30.23
2019-04-22T18:22:29.479Z,30.47
2019-04-22T18:24:56.805Z,30.54
2019-04-22T18:27:48.849Z,30.70
2019-04-22T18:30:01.968Z,30.82
2019-04-22T18:32:22.857Z,30.82
2019-04-22T18:34:53.108Z,31.02
2019-04-22T18:37:24.882Z,30.98
2019-04-22T18:39:58.031Z,31.32
2019-04-22T18:42:24.161Z,31.21
2019-04-22T18:45:06.599Z,31.67
2019-04-22T18:47:21.636Z,31.60
2019-04-22T18:49:53.100Z,31.87
2019-04-22T18:52:19.366Z,31.79
2019-04-22T18:54:55.257Z,31.97
2019-04-22T18:57:20.130Z,32.07
2019-04-22T18:59:34.623Z,32.04
2019-04-22T19:02:05.352Z,32.00
2019-04-22T19:04:38.090Z,32.12
2019-04-22T19:07:23.966Z,32.51
2019-04-22T19:10:00.009Z,32.55
2019-04-22T19:12:37.903Z,32.75
2019-04-22T19:14:54.980Z,32.92
2019-04-22T19:17:30.840Z,33.14
2019-04-22T19:19:44.402Z,33.51
2019-04-22T19:22:07.462Z,33.49
2019-04-22T19:24:34.367Z,33.68
2019-04-22T19:27:11.022Z,34.31
2019-04-22T19:29:39.225Z,34.05
2019-04-22T19:32:08.372Z,34.07
2019-04-22T19:34:34.985Z,34.06
2019-04-22T19:37:03.512Z,34.12
2019-04-22T19:39:28.752Z,34.53
2019-04-22T19:42:09.550Z,34.45
2019-04-22T19:44:36.426Z,34.55
2019-04-22T19:47:18.620Z,34.62
2019-04-22T19:49:44.088Z,34.76
2019-04-22T19:52:05.424Z,34.84
2019-04-22T19:54:26.100Z,35.04
2019-04-22T19:56:45.614Z,35.08
2019-04-22T19:59:14.951Z,35.39
2019-04-22T20:01:49.443Z,35.22
2019-04-22T20:04:28.223Z,35.36
2019-04-22T20:06:52.257Z,35.51
2019-04-22T20:09:24.917Z,35.33
2019-04-22T20:11:49.508Z,35.81
2019-04-22T20:14:35.819Z,36.01
2019-04-22T20:16:43.825Z,35.86
2019-04-22T20:19:25.362Z,35.86
2019-04-22T20:21:49.439Z,35.95
2019-04-22T20:24:05.417Z,35.97
2019-04-22T20:26:50.051Z,36.40
2019-04-22T20:29:11.775Z,36.48
2019-04-22T20:31:45.167Z,36.84
2019-04-22T20:34:14.715Z,36.80
2019-04-22T20:39:02.120Z,37.03
2019-04-22T20:41:33.954Z,37.06
2019-04-22T20:44:12.496Z,37.06
2019-04-22T20:46:31.461Z,37.32
2019-04-22T20:49:05.072Z,37.09
2019-04-22T20:51:44.445Z,37.25
2019-04-22T20:54:02.162Z,37.35
2019-04-22T20:56:31.276Z,37.70
2019-04-22T20:59:01.949Z,37.51
2019-04-22T21:01:28.372Z,37.73
2019-04-22T21:03:45.754Z,38.13
2019-04-22T21:06:26.051Z,38.12
2019-04-22T21:09:02.202Z,38.50
2019-04-22T21:11:28.439Z,38.46
2019-04-22T21:13:52.947Z,38.55
2019-04-22T21:16:26.981Z,38.45
2019-04-22T21:18:47.369Z,38.57
2019-04-22T21:21:26.489Z,38.63
2019-04-22T21:23:47.717Z,38.85
2019-04-22T21:26:19.517Z,39.22
2019-04-22T21:28:47.656Z,39.36
2019-04-22T21:31:24.859Z,39.44
2019-04-22T21:33:48.950Z,39.44
2019-04-22T21:36:20.622Z,39.27
2019-04-22T21:38:44.033Z,39.20
2019-04-22T21:41:10.180Z,39.66
2019-04-22T21:43:42.136Z,39.31
2019-04-22T21:46:13.424Z,39.56
2019-04-22T21:48:42.690Z,39.50
2019-04-22T21:51:10.911Z,40.05
2019-04-22T21:53:48.821Z,40.08
2019-04-22T21:56:23.998Z,39.83
2019-04-22T21:58:38.675Z,39.72
2019-04-22T22:01:14.988Z,39.67
2019-04-22T22:03:40.177Z,40.31
2019-04-22T22:05:58.799Z,40.00
2019-04-22T22:08:42.733Z,39.86
2019-04-22T22:11:02.627Z,39.86
2019-04-22T22:13:34.859Z,39.86
2019-04-22T22:15:56.471Z,40.16
2019-04-22T22:18:23.798Z,40.19
2019-04-22T22:21:20.881Z,40.33
2019-04-22T22:23:32.548Z,40.26
2019-04-22T22:25:53.809Z,40.45
2019-04-22T22:28:41.790Z,40.41
2019-04-22T22:31:03.380Z,40.68
2019-04-22T22:33:26.924Z,40.77
2019-04-22T22:35:52.048Z,40.62
2019-04-22T22:38:24.393Z,40.95
2019-04-22T22:40:35.813Z,40.68
2019-04-22T22:43:12.903Z,40.82
2019-04-22T22:45:37.075Z,40.96
2019-04-22T22:51:29.910Z,41.21
2019-04-22T22:53:57.033Z,41.23
2019-04-22T22:56:35.611Z,41.33
2019-04-22T22:58:54.863Z,41.08
2019-04-22T23:01:21.308Z,41.51
2019-04-22T23:04:02.494Z,41.77
2019-04-22T23:06:22.176Z,42.32
2019-04-22T23:08:54.063Z,42.10
2019-04-22T23:11:12.079Z,42.24
2019-04-22T23:13:42.647Z,42.36
2019-04-22T23:16:04.172Z,42.32
2019-04-22T23:18:21.704Z,42.39
2019-04-22T23:20:51.819Z,42.62
2019-04-22T23:23:39.469Z,42.53
2019-04-22T23:26:06.111Z,42.79
2019-04-22T23:28:29.761Z,43.00
2019-04-22T23:30:51.208Z,43.14
2019-04-22T23:33:27.720Z,43.18
2019-04-22T23:35:52.871Z,43.66
2019-04-22T23:38:24.182Z,44.03
2019-04-22T23:40:54.091Z,44.21
2019-04-22T23:43:32.641Z,43.81
2019-04-22T23:45:56.414Z,44.03
2019-04-22T23:48:25.237Z,44.26
2019-04-22T23:50:57.417Z,44.32
2019-04-22T23:53:45.138Z,44.69
2019-04-22T23:55:57.132Z,44.79
2019-04-22T23:58:44.840Z,44.83
